sensor_id;sensor_type;location;lat;lon;timestamp;pressure;altitude;pressure_sealevel;temperature
79498;BMP180;75160;53.138;18.020;2024-01-11T00:00:23;101905.20;;;
79498;BMP180;75160;53.138;18.020;2024-01-11T00:01:46;101914.00;;;
79498;BMP180;75160;53.138;18.020;2024-01-11T00:02:48;101906.00;;;
79498;BMP180;75160;53.138;18.020;2024-01-11T00:03:49;101905.20;;;
79498;BMP180;75160;53.138;18.020;2024-01-11T00:04:51;101908.20;;;
79498;BMP180;75160;53.138;18.020;2024-01-11T00:05:53;101903.80;;;
79498;BMP180;75160;53.138;18.020;2024-01-11T00:06:55;101892.60;;;
79498;BMP180;75160;53.138;18.020;2024-01-11T00:07:57;101899.60;;;
79498;BMP180;75160;53.138;18.020;2024-01-11T00:08:58;101889.40;;;
79498;BMP180;75160;53.138;18.020;2024-01-11T00:10:02;101885.40;;;
79498;BMP180;75160;53.138;18.020;2024-01-11T00:11:05;101890.60;;;
79498;BMP180;75160;53.138;18.020;2024-01-11T00:12:08;101896.00;;;
79498;BMP180;75160;53.138;18.020;2024-01-11T00:13:09;101895.60;;;
79498;BMP180;75160;53.138;18.020;2024-01-11T00:14:11;101890.60;;;
79498;BMP180;75160;53.138;18.020;2024-01-11T00:15:13;101885.00;;;
79498;BMP180;75160;53.138;18.020;2024-01-11T00:16:15;101881.40;;;
79498;BMP180;75160;53.138;18.020;2024-01-11T00:17:17;101875.60;;;
79498;BMP180;75160;53.138;18.020;2024-01-11T00:18:19;101857.20;;;
79498;BMP180;75160;53.138;18.020;2024-01-11T00:19:21;101862.00;;;
79498;BMP180;75160;53.138;18.020;2024-01-11T00:20:22;101882.60;;;
79498;BMP180;75160;53.138;18.020;2024-01-11T00:21:24;101881.60;;;
79498;BMP180;75160;53.138;18.020;2024-01-11T00:22:26;101882.60;;;
79498;BMP180;75160;53.138;18.020;2024-01-11T00:23:28;101869.20;;;
79498;BMP180;75160;53.138;18.020;2024-01-11T00:24:29;101859.60;;;
79498;BMP180;75160;53.138;18.020;2024-01-11T00:25:31;101856.40;;;
79498;BMP180;75160;53.138;18.020;2024-01-11T00:26:33;101872.00;;;
79498;BMP180;75160;53.138;18.020;2024-01-11T00:27:35;101853.00;;;
79498;BMP180;75160;53.138;18.020;2024-01-11T00:28:36;101868.20;;;
79498;BMP180;75160;53.138;18.020;2024-01-11T00:29:38;101869.80;;;
79498;BMP180;75160;53.138;18.020;2024-01-11T00:30:40;101868.40;;;
79498;BMP180;75160;53.138;18.020;2024-01-11T00:31:42;101867.60;;;
79498;BMP180;75160;53.138;18.020;2024-01-11T00:32:43;101861.40;;;
79498;BMP180;75160;53.138;18.020;2024-01-11T00:33:45;101865.20;;;
79498;BMP180;75160;53.138;18.020;2024-01-11T00:34:47;101862.60;;;
79498;BMP180;75160;53.138;18.020;2024-01-11T00:35:49;101845.20;;;
79498;BMP180;75160;53.138;18.020;2024-01-11T00:36:51;101841.40;;;
79498;BMP180;75160;53.138;18.020;2024-01-11T00:37:53;101837.40;;;
79498;BMP180;75160;53.138;18.020;2024-01-11T00:38:54;101834.80;;;
79498;BMP180;75160;53.138;18.020;2024-01-11T00:39:56;101830.60;;;
79498;BMP180;75160;53.138;18.020;2024-01-11T00:40:58;101828.60;;;
79498;BMP180;75160;53.138;18.020;2024-01-11T00:42:00;101826.40;;;
79498;BMP180;75160;53.138;18.020;2024-01-11T00:43:02;101822.20;;;
79498;BMP180;75160;53.138;18.020;2024-01-11T00:44:03;101820.20;;;
79498;BMP180;75160;53.138;18.020;2024-01-11T00:45:06;101810.40;;;
79498;BMP180;75160;53.138;18.020;2024-01-11T00:46:08;101798.00;;;
79498;BMP180;75160;53.138;18.020;2024-01-11T00:47:09;101801.80;;;
79498;BMP180;75160;53.138;18.020;2024-01-11T00:48:12;101799.80;;;
79498;BMP180;75160;53.138;18.020;2024-01-11T00:49:14;101803.80;;;
79498;BMP180;75160;53.138;18.020;2024-01-11T00:50:16;101813.00;;;
79498;BMP180;75160;53.138;18.020;2024-01-11T00:51:17;101810.80;;;
79498;BMP180;75160;53.138;18.020;2024-01-11T00:52:19;101806.20;;;
79498;BMP180;75160;53.138;18.020;2024-01-11T00:53:21;101808.40;;;
79498;BMP180;75160;53.138;18.020;2024-01-11T00:54:23;101814.60;;;
79498;BMP180;75160;53.138;18.020;2024-01-11T00:55:26;101816.60;;;
79498;BMP180;75160;53.138;18.020;2024-01-11T00:56:28;101820.40;;;
79498;BMP180;75160;53.138;18.020;2024-01-11T00:57:30;101819.20;;;
79498;BMP180;75160;53.138;18.020;2024-01-11T00:58:31;101824.80;;;
79498;BMP180;75160;53.138;18.020;2024-01-11T00:59:33;101822.80;;;
79498;BMP180;75160;53.138;18.020;2024-01-11T01:00:35;101823.00;;;
79498;BMP180;75160;53.138;18.020;2024-01-11T01:01:37;101814.40;;;
79498;BMP180;75160;53.138;18.020;2024-01-11T01:02:38;101814.80;;;
79498;BMP180;75160;53.138;18.020;2024-01-11T01:03:40;101809.80;;;
79498;BMP180;75160;53.138;18.020;2024-01-11T01:04:42;101807.60;;;
79498;BMP180;75160;53.138;18.020;2024-01-11T01:05:44;101815.60;;;
79498;BMP180;75160;53.138;18.020;2024-01-11T01:06:46;101817.20;;;
79498;BMP180;75160;53.138;18.020;2024-01-11T01:07:48;101821.40;;;
79498;BMP180;75160;53.138;18.020;2024-01-11T01:08:50;101827.20;;;
79498;BMP180;75160;53.138;18.020;2024-01-11T01:09:52;101833.20;;;
79498;BMP180;75160;53.138;18.020;2024-01-11T01:10:54;101831.40;;;
79498;BMP180;75160;53.138;18.020;2024-01-11T01:11:56;101829.40;;;
79498;BMP180;75160;53.138;18.020;2024-01-11T01:12:58;101831.60;;;
79498;BMP180;75160;53.138;18.020;2024-01-11T01:13:59;101826.60;;;
79498;BMP180;75160;53.138;18.020;2024-01-11T01:15:01;101821.80;;;
79498;BMP180;75160;53.138;18.020;2024-01-11T01:16:03;101823.60;;;
79498;BMP180;75160;53.138;18.020;2024-01-11T01:17:05;101819.40;;;
79498;BMP180;75160;53.138;18.020;2024-01-11T01:18:07;101825.60;;;
79498;BMP180;75160;53.138;18.020;2024-01-11T01:19:09;101819.20;;;
79498;BMP180;75160;53.138;18.020;2024-01-11T01:20:11;101808.40;;;
79498;BMP180;75160;53.138;18.020;2024-01-11T01:21:13;101807.20;;;
79498;BMP180;75160;53.138;18.020;2024-01-11T01:22:14;101809.00;;;
79498;BMP180;75160;53.138;18.020;2024-01-11T01:23:16;101813.80;;;
79498;BMP180;75160;53.138;18.020;2024-01-11T01:24:19;101822.00;;;
79498;BMP180;75160;53.138;18.020;2024-01-11T01:25:21;101822.80;;;
79498;BMP180;75160;53.138;18.020;2024-01-11T01:26:23;101835.80;;;
79498;BMP180;75160;53.138;18.020;2024-01-11T01:27:24;101834.40;;;
79498;BMP180;75160;53.138;18.020;2024-01-11T01:28:26;101842.20;;;
79498;BMP180;75160;53.138;18.020;2024-01-11T01:29:28;101849.00;;;
79498;BMP180;75160;53.138;18.020;2024-01-11T01:30:30;101846.60;;;
79498;BMP180;75160;53.138;18.020;2024-01-11T01:31:31;101838.60;;;
79498;BMP180;75160;53.138;18.020;2024-01-11T01:32:38;101834.40;;;
79498;BMP180;75160;53.138;18.020;2024-01-11T01:33:40;101830.40;;;
79498;BMP180;75160;53.138;18.020;2024-01-11T01:34:42;101825.40;;;
79498;BMP180;75160;53.138;18.020;2024-01-11T01:35:44;101826.20;;;
79498;BMP180;75160;53.138;18.020;2024-01-11T01:36:45;101818.00;;;
79498;BMP180;75160;53.138;18.020;2024-01-11T01:37:47;101819.40;;;
79498;BMP180;75160;53.138;18.020;2024-01-11T01:38:49;101824.20;;;
79498;BMP180;75160;53.138;18.020;2024-01-11T01:39:51;101816.40;;;
79498;BMP180;75160;53.138;18.020;2024-01-11T01:40:53;101828.20;;;
79498;BMP180;75160;53.138;18.020;2024-01-11T01:41:54;101833.00;;;
79498;BMP180;75160;53.138;18.020;2024-01-11T01:42:59;101837.60;;;
79498;BMP180;75160;53.138;18.020;2024-01-11T01:44:04;101836.20;;;
79498;BMP180;75160;53.138;18.020;2024-01-11T01:45:06;101841.20;;;
79498;BMP180;75160;53.138;18.020;2024-01-11T01:46:08;101837.80;;;
79498;BMP180;75160;53.138;18.020;2024-01-11T01:47:10;101837.00;;;
79498;BMP180;75160;53.138;18.020;2024-01-11T01:48:13;101834.20;;;
79498;BMP180;75160;53.138;18.020;2024-01-11T01:49:15;101833.40;;;
79498;BMP180;75160;53.138;18.020;2024-01-11T01:50:20;101833.00;;;
79498;BMP180;75160;53.138;18.020;2024-01-11T01:51:25;101832.20;;;
79498;BMP180;75160;53.138;18.020;2024-01-11T01:52:29;101837.80;;;
79498;BMP180;75160;53.138;18.020;2024-01-11T01:53:31;101846.20;;;
79498;BMP180;75160;53.138;18.020;2024-01-11T01:54:33;101846.40;;;
79498;BMP180;75160;53.138;18.020;2024-01-11T01:55:35;101847.80;;;
79498;BMP180;75160;53.138;18.020;2024-01-11T01:56:36;101858.20;;;
79498;BMP180;75160;53.138;18.020;2024-01-11T01:57:40;101853.20;;;
79498;BMP180;75160;53.138;18.020;2024-01-11T01:58:43;101855.40;;;
79498;BMP180;75160;53.138;18.020;2024-01-11T01:59:45;101862.20;;;
79498;BMP180;75160;53.138;18.020;2024-01-11T02:00:50;101858.60;;;
79498;BMP180;75160;53.138;18.020;2024-01-11T02:01:54;101851.80;;;
79498;BMP180;75160;53.138;18.020;2024-01-11T02:02:56;101850.60;;;
79498;BMP180;75160;53.138;18.020;2024-01-11T02:03:59;101844.60;;;
79498;BMP180;75160;53.138;18.020;2024-01-11T02:05:01;101840.20;;;
79498;BMP180;75160;53.138;18.020;2024-01-11T02:06:05;101836.80;;;
79498;BMP180;75160;53.138;18.020;2024-01-11T02:07:08;101840.80;;;
79498;BMP180;75160;53.138;18.020;2024-01-11T02:08:16;101845.80;;;
79498;BMP180;75160;53.138;18.020;2024-01-11T02:09:19;101845.60;;;
79498;BMP180;75160;53.138;18.020;2024-01-11T02:10:22;101843.80;;;
79498;BMP180;75160;53.138;18.020;2024-01-11T02:11:24;101845.20;;;
79498;BMP180;75160;53.138;18.020;2024-01-11T02:12:26;101841.20;;;
79498;BMP180;75160;53.138;18.020;2024-01-11T02:13:29;101842.00;;;
79498;BMP180;75160;53.138;18.020;2024-01-11T02:14:31;101843.60;;;
79498;BMP180;75160;53.138;18.020;2024-01-11T02:15:34;101843.40;;;
79498;BMP180;75160;53.138;18.020;2024-01-11T02:16:37;101847.60;;;
79498;BMP180;75160;53.138;18.020;2024-01-11T02:17:40;101838.00;;;
79498;BMP180;75160;53.138;18.020;2024-01-11T02:18:43;101843.00;;;
79498;BMP180;75160;53.138;18.020;2024-01-11T02:19:46;101840.80;;;
79498;BMP180;75160;53.138;18.020;2024-01-11T02:20:48;101839.20;;;
79498;BMP180;75160;53.138;18.020;2024-01-11T02:21:52;101838.40;;;
79498;BMP180;75160;53.138;18.020;2024-01-11T02:23:05;101838.40;;;
79498;BMP180;75160;53.138;18.020;2024-01-11T02:24:08;101839.40;;;
79498;BMP180;75160;53.138;18.020;2024-01-11T02:25:10;101839.40;;;
79498;BMP180;75160;53.138;18.020;2024-01-11T02:26:14;101850.00;;;
79498;BMP180;75160;53.138;18.020;2024-01-11T02:27:16;101842.00;;;
79498;BMP180;75160;53.138;18.020;2024-01-11T02:28:19;101838.60;;;
79498;BMP180;75160;53.138;18.020;2024-01-11T02:29:20;101835.00;;;
79498;BMP180;75160;53.138;18.020;2024-01-11T02:30:22;101834.00;;;
79498;BMP180;75160;53.138;18.020;2024-01-11T02:31:25;101825.20;;;
79498;BMP180;75160;53.138;18.020;2024-01-11T02:32:26;101828.20;;;
79498;BMP180;75160;53.138;18.020;2024-01-11T02:33:28;101824.20;;;
79498;BMP180;75160;53.138;18.020;2024-01-11T02:34:30;101827.80;;;
79498;BMP180;75160;53.138;18.020;2024-01-11T02:35:33;101820.40;;;
79498;BMP180;75160;53.138;18.020;2024-01-11T02:36:35;101820.60;;;
79498;BMP180;75160;53.138;18.020;2024-01-11T02:37:38;101818.40;;;
79498;BMP180;75160;53.138;18.020;2024-01-11T02:38:42;101816.60;;;
79498;BMP180;75160;53.138;18.020;2024-01-11T02:39:44;101806.80;;;
79498;BMP180;75160;53.138;18.020;2024-01-11T02:40:47;101810.00;;;
79498;BMP180;75160;53.138;18.020;2024-01-11T02:41:52;101810.60;;;
79498;BMP180;75160;53.138;18.020;2024-01-11T02:42:54;101806.00;;;
79498;BMP180;75160;53.138;18.020;2024-01-11T02:43:56;101810.60;;;
79498;BMP180;75160;53.138;18.020;2024-01-11T02:44:58;101804.00;;;
79498;BMP180;75160;53.138;18.020;2024-01-11T02:46:00;101811.20;;;
79498;BMP180;75160;53.138;18.020;2024-01-11T02:47:02;101799.00;;;
79498;BMP180;75160;53.138;18.020;2024-01-11T02:48:04;101808.00;;;
79498;BMP180;75160;53.138;18.020;2024-01-11T02:49:06;101803.60;;;
79498;BMP180;75160;53.138;18.020;2024-01-11T02:50:08;101800.40;;;
79498;BMP180;75160;53.138;18.020;2024-01-11T02:51:10;101807.60;;;
79498;BMP180;75160;53.138;18.020;2024-01-11T02:52:12;101804.00;;;
79498;BMP180;75160;53.138;18.020;2024-01-11T02:53:14;101803.40;;;
79498;BMP180;75160;53.138;18.020;2024-01-11T02:54:15;101806.60;;;
79498;BMP180;75160;53.138;18.020;2024-01-11T02:55:17;101792.80;;;
79498;BMP180;75160;53.138;18.020;2024-01-11T02:56:19;101783.80;;;
79498;BMP180;75160;53.138;18.020;2024-01-11T02:57:21;101784.00;;;
79498;BMP180;75160;53.138;18.020;2024-01-11T02:58:22;101783.80;;;
79498;BMP180;75160;53.138;18.020;2024-01-11T02:59:24;101785.80;;;
79498;BMP180;75160;53.138;18.020;2024-01-11T03:00:26;101789.20;;;
79498;BMP180;75160;53.138;18.020;2024-01-11T03:01:28;101786.40;;;
79498;BMP180;75160;53.138;18.020;2024-01-11T03:02:30;101789.20;;;
79498;BMP180;75160;53.138;18.020;2024-01-11T03:03:32;101781.20;;;
79498;BMP180;75160;53.138;18.020;2024-01-11T03:04:33;101777.40;;;
79498;BMP180;75160;53.138;18.020;2024-01-11T03:05:35;101777.40;;;
79498;BMP180;75160;53.138;18.020;2024-01-11T03:06:37;101771.20;;;
79498;BMP180;75160;53.138;18.020;2024-01-11T03:07:39;101773.80;;;
79498;BMP180;75160;53.138;18.020;2024-01-11T03:08:40;101773.80;;;
79498;BMP180;75160;53.138;18.020;2024-01-11T03:09:42;101777.20;;;
79498;BMP180;75160;53.138;18.020;2024-01-11T03:10:44;101772.40;;;
79498;BMP180;75160;53.138;18.020;2024-01-11T03:11:46;101772.00;;;
79498;BMP180;75160;53.138;18.020;2024-01-11T03:12:48;101771.00;;;
79498;BMP180;75160;53.138;18.020;2024-01-11T03:13:50;101774.20;;;
79498;BMP180;75160;53.138;18.020;2024-01-11T03:14:52;101764.00;;;
79498;BMP180;75160;53.138;18.020;2024-01-11T03:15:54;101752.40;;;
79498;BMP180;75160;53.138;18.020;2024-01-11T03:16:56;101747.60;;;
79498;BMP180;75160;53.138;18.020;2024-01-11T03:17:57;101750.20;;;
79498;BMP180;75160;53.138;18.020;2024-01-11T03:18:59;101745.20;;;
79498;BMP180;75160;53.138;18.020;2024-01-11T03:20:02;101749.20;;;
79498;BMP180;75160;53.138;18.020;2024-01-11T03:21:06;101734.00;;;
79498;BMP180;75160;53.138;18.020;2024-01-11T03:22:08;101737.20;;;
79498;BMP180;75160;53.138;18.020;2024-01-11T03:23:09;101731.00;;;
79498;BMP180;75160;53.138;18.020;2024-01-11T03:24:13;101724.40;;;
79498;BMP180;75160;53.138;18.020;2024-01-11T03:25:14;101722.40;;;
79498;BMP180;75160;53.138;18.020;2024-01-11T03:26:17;101731.60;;;
79498;BMP180;75160;53.138;18.020;2024-01-11T03:27:19;101726.20;;;
79498;BMP180;75160;53.138;18.020;2024-01-11T03:28:21;101725.80;;;
79498;BMP180;75160;53.138;18.020;2024-01-11T03:29:22;101723.80;;;
79498;BMP180;75160;53.138;18.020;2024-01-11T03:30:25;101724.60;;;
79498;BMP180;75160;53.138;18.020;2024-01-11T03:31:27;101722.40;;;
79498;BMP180;75160;53.138;18.020;2024-01-11T03:32:28;101733.20;;;
79498;BMP180;75160;53.138;18.020;2024-01-11T03:33:30;101738.60;;;
79498;BMP180;75160;53.138;18.020;2024-01-11T03:34:32;101734.40;;;
79498;BMP180;75160;53.138;18.020;2024-01-11T03:35:34;101732.40;;;
79498;BMP180;75160;53.138;18.020;2024-01-11T03:36:35;101737.00;;;
79498;BMP180;75160;53.138;18.020;2024-01-11T03:37:37;101742.40;;;
79498;BMP180;75160;53.138;18.020;2024-01-11T03:38:39;101738.20;;;
79498;BMP180;75160;53.138;18.020;2024-01-11T03:39:40;101741.40;;;
79498;BMP180;75160;53.138;18.020;2024-01-11T03:40:42;101743.60;;;
79498;BMP180;75160;53.138;18.020;2024-01-11T03:41:44;101743.20;;;
79498;BMP180;75160;53.138;18.020;2024-01-11T03:42:46;101746.60;;;
79498;BMP180;75160;53.138;18.020;2024-01-11T03:43:51;101738.00;;;
79498;BMP180;75160;53.138;18.020;2024-01-11T03:44:53;101739.80;;;
79498;BMP180;75160;53.138;18.020;2024-01-11T03:45:55;101739.40;;;
79498;BMP180;75160;53.138;18.020;2024-01-11T03:46:57;101746.20;;;
79498;BMP180;75160;53.138;18.020;2024-01-11T03:47:58;101731.60;;;
79498;BMP180;75160;53.138;18.020;2024-01-11T03:49:00;101735.00;;;
79498;BMP180;75160;53.138;18.020;2024-01-11T03:50:02;101729.00;;;
79498;BMP180;75160;53.138;18.020;2024-01-11T03:51:05;101728.40;;;
79498;BMP180;75160;53.138;18.020;2024-01-11T03:52:08;101728.60;;;
79498;BMP180;75160;53.138;18.020;2024-01-11T03:53:09;101721.20;;;
79498;BMP180;75160;53.138;18.020;2024-01-11T03:54:11;101720.20;;;
79498;BMP180;75160;53.138;18.020;2024-01-11T03:55:14;101712.20;;;
79498;BMP180;75160;53.138;18.020;2024-01-11T03:56:16;101707.20;;;
79498;BMP180;75160;53.138;18.020;2024-01-11T03:57:17;101702.60;;;
79498;BMP180;75160;53.138;18.020;2024-01-11T03:58:19;101705.60;;;
79498;BMP180;75160;53.138;18.020;2024-01-11T03:59:21;101706.20;;;
79498;BMP180;75160;53.138;18.020;2024-01-11T04:00:23;101704.40;;;
79498;BMP180;75160;53.138;18.020;2024-01-11T04:01:25;101710.00;;;
79498;BMP180;75160;53.138;18.020;2024-01-11T04:02:26;101701.20;;;
79498;BMP180;75160;53.138;18.020;2024-01-11T04:03:28;101699.20;;;
79498;BMP180;75160;53.138;18.020;2024-01-11T04:04:30;101695.40;;;
79498;BMP180;75160;53.138;18.020;2024-01-11T04:05:32;101684.60;;;
79498;BMP180;75160;53.138;18.020;2024-01-11T04:06:34;101688.20;;;
79498;BMP180;75160;53.138;18.020;2024-01-11T04:07:35;101686.40;;;
79498;BMP180;75160;53.138;18.020;2024-01-11T04:08:37;101677.40;;;
79498;BMP180;75160;53.138;18.020;2024-01-11T04:09:39;101678.80;;;
79498;BMP180;75160;53.138;18.020;2024-01-11T04:10:41;101672.80;;;
79498;BMP180;75160;53.138;18.020;2024-01-11T04:11:42;101659.20;;;
79498;BMP180;75160;53.138;18.020;2024-01-11T04:12:44;101658.80;;;
79498;BMP180;75160;53.138;18.020;2024-01-11T04:13:46;101647.00;;;
79498;BMP180;75160;53.138;18.020;2024-01-11T04:14:48;101659.80;;;
79498;BMP180;75160;53.138;18.020;2024-01-11T04:15:50;101650.60;;;
79498;BMP180;75160;53.138;18.020;2024-01-11T04:16:51;101643.00;;;
79498;BMP180;75160;53.138;18.020;2024-01-11T04:17:53;101636.00;;;
79498;BMP180;75160;53.138;18.020;2024-01-11T04:18:55;101638.60;;;
79498;BMP180;75160;53.138;18.020;2024-01-11T04:19:56;101641.40;;;
79498;BMP180;75160;53.138;18.020;2024-01-11T04:20:59;101641.00;;;
79498;BMP180;75160;53.138;18.020;2024-01-11T04:22:00;101633.40;;;
79498;BMP180;75160;53.138;18.020;2024-01-11T04:23:02;101636.40;;;
79498;BMP180;75160;53.138;18.020;2024-01-11T04:24:05;101645.60;;;
79498;BMP180;75160;53.138;18.020;2024-01-11T04:25:10;101649.60;;;
79498;BMP180;75160;53.138;18.020;2024-01-11T04:26:12;101656.60;;;
79498;BMP180;75160;53.138;18.020;2024-01-11T04:27:14;101659.80;;;
79498;BMP180;75160;53.138;18.020;2024-01-11T04:28:16;101666.20;;;
79498;BMP180;75160;53.138;18.020;2024-01-11T04:29:18;101661.00;;;
79498;BMP180;75160;53.138;18.020;2024-01-11T04:30:20;101653.80;;;
79498;BMP180;75160;53.138;18.020;2024-01-11T04:31:21;101658.00;;;
79498;BMP180;75160;53.138;18.020;2024-01-11T04:32:23;101659.80;;;
79498;BMP180;75160;53.138;18.020;2024-01-11T04:33:25;101656.20;;;
79498;BMP180;75160;53.138;18.020;2024-01-11T04:34:27;101652.20;;;
79498;BMP180;75160;53.138;18.020;2024-01-11T04:35:29;101651.40;;;
79498;BMP180;75160;53.138;18.020;2024-01-11T04:36:31;101638.20;;;
79498;BMP180;75160;53.138;18.020;2024-01-11T04:37:33;101642.80;;;
79498;BMP180;75160;53.138;18.020;2024-01-11T04:38:37;101628.20;;;
79498;BMP180;75160;53.138;18.020;2024-01-11T04:39:39;101622.40;;;
79498;BMP180;75160;53.138;18.020;2024-01-11T04:40:41;101624.40;;;
79498;BMP180;75160;53.138;18.020;2024-01-11T04:41:42;101635.60;;;
79498;BMP180;75160;53.138;18.020;2024-01-11T04:42:44;101637.40;;;
79498;BMP180;75160;53.138;18.020;2024-01-11T04:43:46;101638.80;;;
79498;BMP180;75160;53.138;18.020;2024-01-11T04:44:48;101642.60;;;
79498;BMP180;75160;53.138;18.020;2024-01-11T04:45:49;101645.00;;;
79498;BMP180;75160;53.138;18.020;2024-01-11T04:46:51;101643.60;;;
79498;BMP180;75160;53.138;18.020;2024-01-11T04:47:53;101646.40;;;
79498;BMP180;75160;53.138;18.020;2024-01-11T04:48:55;101643.20;;;
79498;BMP180;75160;53.138;18.020;2024-01-11T04:49:57;101650.60;;;
79498;BMP180;75160;53.138;18.020;2024-01-11T04:50:58;101642.20;;;
79498;BMP180;75160;53.138;18.020;2024-01-11T04:52:00;101645.00;;;
79498;BMP180;75160;53.138;18.020;2024-01-11T04:53:02;101647.40;;;
79498;BMP180;75160;53.138;18.020;2024-01-11T04:54:04;101645.40;;;
79498;BMP180;75160;53.138;18.020;2024-01-11T04:55:06;101636.20;;;
79498;BMP180;75160;53.138;18.020;2024-01-11T04:56:10;101628.00;;;
79498;BMP180;75160;53.138;18.020;2024-01-11T04:57:12;101630.80;;;
79498;BMP180;75160;53.138;18.020;2024-01-11T04:58:14;101626.80;;;
79498;BMP180;75160;53.138;18.020;2024-01-11T04:59:16;101616.60;;;
79498;BMP180;75160;53.138;18.020;2024-01-11T05:00:18;101619.00;;;
79498;BMP180;75160;53.138;18.020;2024-01-11T05:01:20;101625.00;;;
79498;BMP180;75160;53.138;18.020;2024-01-11T05:02:23;101636.00;;;
79498;BMP180;75160;53.138;18.020;2024-01-11T05:03:24;101635.20;;;
79498;BMP180;75160;53.138;18.020;2024-01-11T05:04:27;101635.00;;;
79498;BMP180;75160;53.138;18.020;2024-01-11T05:05:28;101632.20;;;
79498;BMP180;75160;53.138;18.020;2024-01-11T05:06:30;101640.40;;;
79498;BMP180;75160;53.138;18.020;2024-01-11T05:07:32;101640.40;;;
79498;BMP180;75160;53.138;18.020;2024-01-11T05:08:36;101643.60;;;
79498;BMP180;75160;53.138;18.020;2024-01-11T05:09:38;101644.20;;;
79498;BMP180;75160;53.138;18.020;2024-01-11T05:10:40;101640.00;;;
79498;BMP180;75160;53.138;18.020;2024-01-11T05:11:42;101639.60;;;
79498;BMP180;75160;53.138;18.020;2024-01-11T05:12:43;101637.00;;;
79498;BMP180;75160;53.138;18.020;2024-01-11T05:13:45;101634.60;;;
79498;BMP180;75160;53.138;18.020;2024-01-11T05:14:49;101630.00;;;
79498;BMP180;75160;53.138;18.020;2024-01-11T05:15:50;101629.20;;;
79498;BMP180;75160;53.138;18.020;2024-01-11T05:16:52;101629.40;;;
79498;BMP180;75160;53.138;18.020;2024-01-11T05:17:58;101624.40;;;
79498;BMP180;75160;53.138;18.020;2024-01-11T05:19:00;101623.80;;;
79498;BMP180;75160;53.138;18.020;2024-01-11T05:20:02;101623.80;;;
79498;BMP180;75160;53.138;18.020;2024-01-11T05:21:04;101626.20;;;
79498;BMP180;75160;53.138;18.020;2024-01-11T05:22:06;101623.20;;;
79498;BMP180;75160;53.138;18.020;2024-01-11T05:23:08;101631.40;;;
79498;BMP180;75160;53.138;18.020;2024-01-11T05:24:09;101639.00;;;
79498;BMP180;75160;53.138;18.020;2024-01-11T05:25:11;101639.80;;;
79498;BMP180;75160;53.138;18.020;2024-01-11T05:26:15;101632.40;;;
79498;BMP180;75160;53.138;18.020;2024-01-11T05:27:17;101626.60;;;
79498;BMP180;75160;53.138;18.020;2024-01-11T05:28:19;101634.60;;;
79498;BMP180;75160;53.138;18.020;2024-01-11T05:29:21;101626.40;;;
79498;BMP180;75160;53.138;18.020;2024-01-11T05:30:23;101629.80;;;
79498;BMP180;75160;53.138;18.020;2024-01-11T05:31:24;101634.00;;;
79498;BMP180;75160;53.138;18.020;2024-01-11T05:32:26;101634.80;;;
79498;BMP180;75160;53.138;18.020;2024-01-11T05:33:28;101631.20;;;
79498;BMP180;75160;53.138;18.020;2024-01-11T05:34:30;101614.60;;;
79498;BMP180;75160;53.138;18.020;2024-01-11T05:35:31;101619.20;;;
79498;BMP180;75160;53.138;18.020;2024-01-11T05:36:33;101628.40;;;
79498;BMP180;75160;53.138;18.020;2024-01-11T05:37:35;101637.40;;;
79498;BMP180;75160;53.138;18.020;2024-01-11T05:38:39;101630.80;;;
79498;BMP180;75160;53.138;18.020;2024-01-11T05:39:41;101629.80;;;
79498;BMP180;75160;53.138;18.020;2024-01-11T05:40:43;101645.00;;;
79498;BMP180;75160;53.138;18.020;2024-01-11T05:41:44;101644.80;;;
79498;BMP180;75160;53.138;18.020;2024-01-11T05:42:46;101632.00;;;
79498;BMP180;75160;53.138;18.020;2024-01-11T05:43:48;101626.00;;;
79498;BMP180;75160;53.138;18.020;2024-01-11T05:44:51;101635.00;;;
79498;BMP180;75160;53.138;18.020;2024-01-11T05:45:53;101640.60;;;
79498;BMP180;75160;53.138;18.020;2024-01-11T05:46:55;101635.60;;;
79498;BMP180;75160;53.138;18.020;2024-01-11T05:47:57;101624.20;;;
79498;BMP180;75160;53.138;18.020;2024-01-11T05:48:58;101615.20;;;
79498;BMP180;75160;53.138;18.020;2024-01-11T05:50:00;101622.40;;;
79498;BMP180;75160;53.138;18.020;2024-01-11T05:51:02;101625.00;;;
79498;BMP180;75160;53.138;18.020;2024-01-11T05:52:04;101636.20;;;
79498;BMP180;75160;53.138;18.020;2024-01-11T05:53:06;101633.40;;;
79498;BMP180;75160;53.138;18.020;2024-01-11T05:54:08;101620.80;;;
79498;BMP180;75160;53.138;18.020;2024-01-11T05:55:09;101621.20;;;
79498;BMP180;75160;53.138;18.020;2024-01-11T05:56:11;101626.80;;;
79498;BMP180;75160;53.138;18.020;2024-01-11T05:57:13;101620.40;;;
79498;BMP180;75160;53.138;18.020;2024-01-11T05:58:15;101613.00;;;
79498;BMP180;75160;53.138;18.020;2024-01-11T05:59:17;101605.20;;;
79498;BMP180;75160;53.138;18.020;2024-01-11T06:00:19;101608.20;;;
79498;BMP180;75160;53.138;18.020;2024-01-11T06:01:21;101608.20;;;
79498;BMP180;75160;53.138;18.020;2024-01-11T06:02:22;101599.40;;;
79498;BMP180;75160;53.138;18.020;2024-01-11T06:03:24;101598.00;;;
79498;BMP180;75160;53.138;18.020;2024-01-11T06:04:26;101596.40;;;
79498;BMP180;75160;53.138;18.020;2024-01-11T06:05:28;101594.00;;;
79498;BMP180;75160;53.138;18.020;2024-01-11T06:06:30;101590.80;;;
79498;BMP180;75160;53.138;18.020;2024-01-11T06:07:31;101593.80;;;
79498;BMP180;75160;53.138;18.020;2024-01-11T06:08:33;101600.80;;;
79498;BMP180;75160;53.138;18.020;2024-01-11T06:09:35;101595.20;;;
79498;BMP180;75160;53.138;18.020;2024-01-11T06:10:37;101591.20;;;
79498;BMP180;75160;53.138;18.020;2024-01-11T06:11:39;101597.80;;;
79498;BMP180;75160;53.138;18.020;2024-01-11T06:12:41;101594.60;;;
79498;BMP180;75160;53.138;18.020;2024-01-11T06:13:43;101591.00;;;
79498;BMP180;75160;53.138;18.020;2024-01-11T06:14:44;101595.80;;;